createdAt,value
2023-04-26T00:00:06.194Z,9.64
2023-04-26T00:02:34.498Z,9.27
2023-04-26T00:05:05.379Z,9.49
2023-04-26T00:07:34.023Z,9.49
2023-04-26T00:10:02.456Z,9.68
2023-04-26T00:12:30.581Z,9.56
2023-04-26T00:15:02.753Z,9.58
2023-04-26T00:17:31.592Z,9.57
2023-04-26T00:19:59.995Z,9.68
2023-04-26T00:22:28.889Z,9.68
2023-04-26T00:24:57.277Z,9.50
2023-04-26T00:27:25.374Z,9.54
2023-04-26T00:29:53.562Z,9.60
2023-04-26T00:32:25.694Z,9.42
2023-04-26T00:34:53.745Z,9.53
2023-04-26T00:37:23.308Z,9.59
2023-04-26T00:39:51.403Z,9.54
2023-04-26T00:42:20.713Z,9.53
2023-04-26T00:44:50.374Z,9.55
2023-04-26T00:47:18.783Z,9.56
2023-04-26T00:49:48.284Z,9.53
2023-04-26T00:52:16.911Z,9.41
2023-04-26T00:54:45.572Z,9.32
2023-04-26T00:57:13.750Z,8.96
2023-04-26T00:59:42.196Z,9.01
2023-04-26T01:02:10.346Z,8.90
2023-04-26T01:04:40.792Z,8.90
2023-04-26T01:07:10.329Z,9.07
2023-04-26T01:09:38.499Z,8.72
2023-04-26T01:12:08.610Z,8.78
2023-04-26T01:14:37.938Z,8.83
2023-04-26T01:17:06.774Z,8.84
2023-04-26T01:19:37.775Z,8.72
2023-04-26T01:22:05.772Z,8.55
2023-04-26T01:24:37.377Z,8.44
2023-04-26T01:27:05.595Z,8.46
2023-04-26T01:29:36.695Z,8.12
2023-04-26T01:32:05.699Z,8.19
2023-04-26T01:34:34.556Z,8.32
2023-04-26T01:37:02.400Z,8.35
2023-04-26T01:39:30.373Z,8.30
2023-04-26T01:41:59.813Z,8.12
2023-04-26T01:44:27.637Z,8.24
2023-04-26T01:46:55.576Z,8.27
2023-04-26T01:49:25.700Z,8.30
2023-04-26T01:51:55.687Z,8.26
2023-04-26T01:54:25.172Z,8.20
2023-04-26T01:56:54.238Z,8.27
2023-04-26T01:59:23.577Z,8.29
2023-04-26T02:01:51.421Z,8.42
2023-04-26T02:04:19.591Z,8.49
2023-04-26T02:06:49.655Z,8.51
2023-04-26T02:09:18.425Z,8.44
2023-04-26T02:11:46.459Z,8.11
2023-04-26T02:14:15.800Z,8.03
2023-04-26T02:16:45.080Z,8.04
2023-04-26T02:19:14.581Z,7.98
2023-04-26T02:21:52.697Z,8.13
2023-04-26T02:24:21.603Z,8.15
2023-04-26T02:26:49.792Z,7.98
2023-04-26T02:29:17.817Z,7.91
2023-04-26T02:31:48.727Z,8.05
2023-04-26T02:34:19.342Z,8.02
2023-04-26T02:36:48.663Z,8.17
2023-04-26T02:39:16.873Z,8.28
2023-04-26T02:41:45.129Z,8.14
2023-04-26T02:44:12.970Z,8.00
2023-04-26T02:46:41.650Z,7.96
2023-04-26T02:49:13.047Z,8.02
2023-04-26T02:51:42.388Z,7.64
2023-04-26T02:54:10.194Z,7.85
2023-04-26T02:56:38.149Z,7.84
2023-04-26T02:59:07.213Z,7.86
2023-04-26T03:01:35.105Z,7.90
2023-04-26T03:04:03.897Z,7.98
2023-04-26T03:06:36.619Z,7.95
2023-04-26T03:09:05.658Z,7.97
2023-04-26T03:11:33.474Z,7.91
2023-04-26T03:14:01.270Z,7.89
2023-04-26T03:16:31.033Z,7.96
2023-04-26T03:18:58.896Z,7.93
2023-04-26T03:21:27.883Z,7.96
2023-04-26T03:23:57.209Z,8.00
2023-04-26T03:26:25.112Z,7.96
2023-04-26T03:28:53.322Z,7.97
2023-04-26T03:31:21.867Z,7.93
2023-04-26T03:33:49.947Z,7.95
2023-04-26T03:36:18.478Z,7.85
2023-04-26T03:38:46.382Z,7.67
2023-04-26T03:41:17.623Z,7.82
2023-04-26T03:43:45.506Z,7.63
2023-04-26T03:46:13.715Z,7.59
2023-04-26T03:48:41.481Z,7.59
2023-04-26T03:51:09.502Z,7.30
2023-04-26T03:53:51.733Z,7.37
2023-04-26T03:56:26.122Z,7.20
2023-04-26T03:58:54.731Z,7.04
2023-04-26T04:01:22.566Z,7.07
2023-04-26T04:03:50.512Z,7.09
2023-04-26T04:06:18.468Z,7.03
2023-04-26T04:08:46.885Z,7.05
2023-04-26T04:11:16.806Z,7.11
2023-04-26T04:13:46.918Z,6.93
2023-04-26T04:16:15.293Z,7.01
2023-04-26T04:18:43.173Z,7.04
2023-04-26T04:21:11.137Z,7.19
2023-04-26T04:23:39.833Z,7.11
2023-04-26T04:26:12.619Z,7.01
2023-04-26T04:28:41.522Z,6.72
2023-04-26T04:31:13.082Z,6.93
2023-04-26T04:33:41.572Z,7.07
2023-04-26T04:36:10.954Z,6.91
2023-04-26T04:38:38.812Z,6.91
2023-04-26T04:41:08.961Z,6.73
2023-04-26T04:43:37.452Z,6.58
2023-04-26T04:46:05.352Z,6.70
2023-04-26T04:48:35.721Z,6.94
2023-04-26T04:51:04.397Z,7.21
2023-04-26T04:53:32.302Z,7.35
2023-04-26T04:56:00.092Z,7.35
2023-04-26T04:58:27.899Z,7.43
2023-04-26T05:00:56.745Z,7.55
2023-04-26T05:03:27.829Z,7.52
2023-04-26T05:05:57.262Z,7.73
2023-04-26T05:08:25.929Z,7.65
2023-04-26T05:10:55.746Z,7.55
2023-04-26T05:13:24.209Z,7.54
2023-04-26T05:15:51.959Z,7.31
2023-04-26T05:18:19.919Z,7.32
2023-04-26T05:20:47.654Z,7.36
2023-04-26T05:23:16.793Z,7.32
2023-04-26T05:25:45.505Z,7.57
2023-04-26T05:28:45.833Z,7.74
2023-04-26T05:31:34.047Z,7.90
2023-04-26T05:34:08.998Z,7.80
2023-04-26T05:36:40.954Z,7.81
2023-04-26T05:39:10.171Z,7.92
2023-04-26T05:41:38.794Z,8.10
2023-04-26T05:44:06.640Z,8.28
2023-04-26T05:46:34.400Z,8.30
2023-04-26T05:49:02.274Z,8.17
2023-04-26T05:51:30.005Z,7.85
2023-04-26T05:53:58.086Z,8.00
2023-04-26T05:56:27.485Z,7.78
2023-04-26T05:58:56.714Z,8.15
2023-04-26T06:01:24.567Z,7.70
2023-04-26T06:03:54.372Z,7.77
2023-04-26T06:06:24.309Z,7.61
2023-04-26T06:08:52.909Z,8.05
2023-04-26T06:11:22.903Z,8.02
2023-04-26T06:13:52.431Z,8.08
2023-04-26T06:16:23.617Z,8.24
2023-04-26T06:18:51.844Z,8.41
2023-04-26T06:21:19.675Z,8.30
2023-04-26T06:23:47.427Z,8.27
2023-04-26T06:26:18.009Z,8.68
2023-04-26T06:28:45.783Z,8.47
2023-04-26T06:31:16.413Z,9.07
2023-04-26T06:33:44.426Z,9.38
2023-04-26T06:36:13.056Z,9.23
2023-04-26T06:38:42.072Z,9.33
2023-04-26T06:41:09.916Z,8.76
2023-04-26T06:43:38.151Z,9.16
2023-04-26T06:46:21.294Z,9.87
2023-04-26T06:48:54.536Z,9.93
2023-04-26T06:51:22.381Z,9.86
2023-04-26T06:53:50.311Z,9.57
2023-04-26T06:56:18.791Z,9.36
2023-04-26T06:58:59.636Z,9.51
2023-04-26T07:01:29.371Z,9.78
2023-04-26T07:03:58.534Z,9.85
2023-04-26T07:06:27.875Z,9.78
2023-04-26T07:08:55.633Z,9.65
2023-04-26T07:11:25.787Z,10.45
2023-04-26T07:13:54.308Z,10.34
2023-04-26T07:16:22.591Z,10.91
2023-04-26T07:18:53.132Z,11.23
2023-04-26T07:21:21.235Z,11.63
2023-04-26T07:23:49.482Z,11.63
2023-04-26T07:26:18.398Z,10.69
2023-04-26T07:28:46.452Z,10.94
2023-04-26T07:31:14.434Z,11.02
2023-04-26T07:33:43.109Z,11.91
2023-04-26T07:36:12.948Z,12.86
2023-04-26T07:38:41.195Z,11.20
2023-04-26T07:41:10.358Z,11.32
2023-04-26T07:43:39.623Z,12.49
2023-04-26T07:46:07.808Z,11.66
2023-04-26T07:48:35.823Z,12.01
2023-04-26T07:51:11.330Z,11.38
2023-04-26T07:53:41.253Z,12.57
2023-04-26T07:56:11.462Z,12.32
2023-04-26T07:58:41.736Z,11.62
2023-04-26T08:01:11.896Z,11.95
2023-04-26T08:03:40.001Z,13.90
2023-04-26T08:06:08.849Z,14.49
2023-04-26T08:08:42.805Z,14.52
2023-04-26T08:11:12.470Z,15.00
2023-04-26T08:13:40.534Z,14.19
2023-04-26T08:16:08.718Z,15.20
2023-04-26T08:18:36.860Z,13.77
2023-04-26T08:21:05.136Z,12.60
2023-04-26T08:23:35.918Z,12.99
2023-04-26T08:26:04.009Z,14.69
2023-04-26T08:28:45.567Z,13.87
2023-04-26T08:31:16.999Z,14.17
2023-04-26T08:33:45.602Z,13.44
2023-04-26T08:36:15.646Z,13.32
2023-04-26T08:38:43.601Z,12.54
2023-04-26T08:41:14.917Z,13.48
2023-04-26T08:43:44.894Z,14.49
2023-04-26T08:46:20.103Z,14.28
2023-04-26T08:48:55.887Z,14.92
2023-04-26T08:51:24.770Z,12.45
2023-04-26T08:53:54.744Z,13.86
2023-04-26T08:56:24.390Z,14.18
2023-04-26T08:58:54.686Z,14.33
2023-04-26T09:01:26.145Z,14.66
2023-04-26T09:03:56.711Z,14.22
2023-04-26T09:06:28.129Z,13.31
2023-04-26T09:08:58.686Z,13.91
2023-04-26T09:11:26.699Z,13.40
2023-04-26T09:13:58.405Z,13.33
2023-04-26T09:16:36.899Z,12.80
2023-04-26T09:19:04.972Z,12.92
2023-04-26T09:21:33.331Z,14.27
2023-04-26T09:24:04.514Z,14.43
2023-04-26T09:26:32.578Z,13.15
2023-04-26T09:29:18.940Z,13.59
2023-04-26T09:31:49.778Z,12.94
2023-04-26T09:34:18.097Z,14.45
2023-04-26T09:36:55.318Z,14.92
2023-04-26T09:39:34.370Z,13.29
2023-04-26T09:42:05.049Z,13.31
2023-04-26T09:44:34.812Z,13.50
2023-04-26T09:47:05.259Z,13.94
2023-04-26T09:49:35.072Z,14.06
2023-04-26T09:52:07.348Z,13.98
2023-04-26T09:54:44.793Z,13.28
2023-04-26T09:57:13.716Z,14.12
2023-04-26T09:59:47.375Z,14.15
2023-04-26T10:02:18.005Z,14.91
2023-04-26T10:04:48.130Z,15.13
2023-04-26T10:07:17.730Z,15.28
2023-04-26T10:09:47.076Z,14.99
2023-04-26T10:12:16.475Z,15.66
2023-04-26T10:14:47.054Z,15.22
2023-04-26T10:17:15.456Z,15.52
2023-04-26T10:19:46.604Z,14.00
2023-04-26T10:22:18.525Z,15.57
2023-04-26T10:24:47.146Z,14.12
2023-04-26T10:27:15.121Z,15.20
2023-04-26T10:30:10.647Z,15.53
2023-04-26T10:33:18.875Z,15.91
2023-04-26T10:36:05.743Z,15.25
2023-04-26T10:38:34.736Z,14.90
2023-04-26T10:41:32.113Z,16.35
2023-04-26T10:44:02.058Z,16.24
2023-04-26T10:46:39.608Z,16.30
2023-04-26T10:49:25.752Z,16.28
2023-04-26T10:52:13.545Z,15.13
2023-04-26T10:54:52.492Z,15.44
2023-04-26T10:57:21.598Z,15.98
2023-04-26T11:00:35.172Z,16.43
2023-04-26T11:03:13.260Z,16.42
2023-04-26T11:05:55.950Z,14.59
2023-04-26T11:08:30.452Z,15.58
2023-04-26T11:11:14.326Z,16.28
2023-04-26T11:13:45.548Z,17.02
2023-04-26T11:16:17.100Z,17.03
2023-04-26T11:18:48.525Z,16.42
2023-04-26T11:21:19.171Z,16.62
2023-04-26T11:23:54.909Z,17.12
2023-04-26T11:26:24.757Z,17.05
2023-04-26T11:28:53.314Z,16.45
2023-04-26T11:31:22.494Z,16.34
2023-04-26T11:33:54.183Z,15.53
2023-04-26T11:36:24.487Z,16.40
2023-04-26T11:38:52.620Z,16.57
2023-04-26T11:41:26.104Z,17.22
2023-04-26T11:43:55.697Z,15.43
2023-04-26T11:46:27.283Z,15.85
2023-04-26T11:49:00.723Z,16.08
2023-04-26T11:51:32.206Z,16.24
2023-04-26T11:54:06.932Z,15.04
2023-04-26T11:56:51.129Z,14.58
2023-04-26T11:59:39.035Z,16.68
2023-04-26T12:02:11.944Z,16.56
2023-04-26T12:04:45.970Z,17.07
2023-04-26T12:07:23.147Z,16.07
2023-04-26T12:10:00.306Z,15.98
2023-04-26T12:12:29.231Z,16.19
2023-04-26T12:14:57.756Z,16.98
2023-04-26T12:17:29.943Z,16.04
2023-04-26T12:19:59.533Z,15.84
2023-04-26T12:22:27.837Z,16.04
2023-04-26T12:25:06.090Z,16.13
2023-04-26T12:27:34.706Z,15.60
2023-04-26T12:30:03.781Z,16.14
2023-04-26T12:32:31.798Z,16.15
2023-04-26T12:35:01.275Z,17.41
2023-04-26T12:37:32.460Z,17.56
2023-04-26T12:40:01.882Z,17.51
2023-04-26T12:42:37.152Z,17.27
2023-04-26T12:45:06.652Z,17.22
2023-04-26T12:47:35.653Z,16.24
2023-04-26T12:50:06.345Z,17.88
2023-04-26T12:52:34.808Z,18.06
2023-04-26T12:55:05.532Z,18.41
2023-04-26T12:57:41.507Z,18.53
2023-04-26T13:00:16.316Z,18.27
2023-04-26T13:02:45.909Z,16.99
2023-04-26T13:05:18.371Z,17.82
2023-04-26T13:07:48.396Z,17.49
2023-04-26T13:10:20.422Z,17.67
2023-04-26T13:12:59.012Z,16.97
2023-04-26T13:15:27.477Z,17.63
2023-04-26T13:17:55.671Z,17.68
2023-04-26T13:20:28.900Z,17.37
2023-04-26T13:22:59.011Z,17.16
2023-04-26T13:25:29.107Z,16.41
2023-04-26T13:27:58.800Z,15.65
2023-04-26T13:30:31.500Z,15.51
2023-04-26T13:33:01.239Z,15.31
2023-04-26T13:35:31.523Z,14.19
2023-04-26T13:38:00.331Z,15.12
2023-04-26T13:40:39.648Z,15.86
2023-04-26T13:43:09.053Z,15.25
2023-04-26T13:45:39.003Z,15.94
2023-04-26T13:48:08.153Z,15.14
2023-04-26T13:50:50.696Z,15.31
2023-04-26T13:53:19.843Z,14.41
2023-04-26T13:55:48.027Z,14.56
2023-04-26T13:58:16.407Z,14.81
2023-04-26T14:00:46.992Z,15.14
2023-04-26T14:03:15.305Z,15.75
2023-04-26T14:05:44.731Z,16.22
2023-04-26T14:08:13.706Z,17.07
2023-04-26T14:10:42.072Z,16.81
2023-04-26T14:13:10.091Z,17.64
2023-04-26T14:15:38.117Z,17.38
2023-04-26T14:18:06.329Z,16.73
2023-04-26T14:20:34.357Z,16.14
2023-04-26T14:23:04.412Z,16.26
2023-04-26T14:25:32.696Z,15.43
2023-04-26T14:28:00.752Z,15.38
2023-04-26T14:30:29.856Z,15.00
2023-04-26T14:32:58.878Z,14.71
2023-04-26T14:35:27.448Z,14.48
2023-04-26T14:37:55.461Z,14.12
2023-04-26T14:40:25.237Z,14.03
2023-04-26T14:42:53.384Z,14.21
2023-04-26T14:45:25.579Z,14.22
2023-04-26T14:48:02.402Z,14.97
2023-04-26T14:50:31.043Z,14.88
2023-04-26T14:53:03.493Z,14.75
2023-04-26T14:55:34.551Z,14.45
2023-04-26T14:58:05.725Z,15.24
2023-04-26T15:00:34.133Z,15.13
2023-04-26T15:03:03.327Z,14.11
2023-04-26T15:05:32.974Z,15.21
2023-04-26T15:08:01.289Z,15.53
2023-04-26T15:10:29.920Z,15.90
2023-04-26T15:12:59.427Z,15.52
2023-04-26T15:15:27.740Z,15.65
2023-04-26T15:17:55.856Z,14.88
2023-04-26T15:20:24.487Z,15.08
2023-04-26T15:22:52.581Z,14.66
2023-04-26T15:25:21.181Z,14.62
2023-04-26T15:27:50.369Z,14.09
2023-04-26T15:30:19.855Z,15.15
2023-04-26T15:32:50.054Z,14.66
2023-04-26T15:35:18.827Z,14.37
2023-04-26T15:37:48.168Z,14.44
2023-04-26T15:40:17.418Z,14.95
2023-04-26T15:42:46.773Z,15.38
2023-04-26T15:45:15.421Z,15.76
2023-04-26T15:47:47.351Z,16.18
2023-04-26T15:50:18.717Z,15.00
2023-04-26T15:52:54.443Z,15.30
2023-04-26T15:55:40.206Z,14.74
2023-04-26T15:58:16.998Z,14.36
2023-04-26T16:00:51.877Z,14.83
2023-04-26T16:03:24.274Z,14.39
2023-04-26T16:05:54.950Z,14.38
2023-04-26T16:08:48.596Z,14.98
2023-04-26T16:11:25.775Z,14.81
2023-04-26T16:13:57.334Z,14.58
2023-04-26T16:16:37.153Z,15.55
2023-04-26T16:19:19.753Z,15.56
2023-04-26T16:22:03.872Z,15.16
2023-04-26T16:24:34.049Z,14.66
2023-04-26T16:27:02.965Z,15.33
2023-04-26T16:29:32.033Z,15.66
2023-04-26T16:32:03.748Z,15.60
2023-04-26T16:34:34.207Z,15.65
2023-04-26T16:37:02.425Z,14.99
2023-04-26T16:39:36.559Z,14.96
2023-04-26T16:42:07.323Z,14.95
2023-04-26T16:44:35.319Z,14.95
2023-04-26T16:47:04.000Z,15.47
2023-04-26T16:49:34.249Z,15.52
2023-04-26T16:52:02.140Z,14.80
2023-04-26T16:54:30.282Z,14.65
2023-04-26T16:56:58.308Z,14.47
2023-04-26T16:59:27.546Z,14.18
2023-04-26T17:01:55.859Z,13.94
2023-04-26T17:04:25.030Z,14.35
2023-04-26T17:06:54.944Z,13.91
2023-04-26T17:09:23.622Z,13.49
2023-04-26T17:11:52.307Z,13.94
2023-04-26T17:14:20.586Z,13.87
2023-04-26T17:16:48.585Z,13.88
2023-04-26T17:19:19.314Z,13.67
2023-04-26T17:21:47.445Z,13.32
2023-04-26T17:24:17.650Z,13.72
2023-04-26T17:26:46.604Z,13.94
2023-04-26T17:29:17.212Z,13.57
2023-04-26T17:31:47.292Z,13.28
2023-04-26T17:34:15.293Z,13.24
2023-04-26T17:36:45.530Z,13.23
2023-04-26T17:39:13.956Z,13.15
2023-04-26T17:41:44.168Z,13.26
2023-04-26T17:44:13.078Z,13.27
2023-04-26T17:46:42.671Z,13.21
2023-04-26T17:49:11.235Z,13.32
2023-04-26T17:51:40.050Z,13.21
2023-04-26T17:54:11.070Z,13.07
2023-04-26T17:56:39.292Z,13.10
2023-04-26T17:59:10.798Z,13.14
2023-04-26T18:01:43.419Z,13.26
2023-04-26T18:04:20.937Z,13.01
2023-04-26T18:06:49.155Z,13.17
2023-04-26T18:09:17.831Z,12.75
2023-04-26T18:11:51.892Z,12.54
2023-04-26T18:14:31.332Z,12.47
2023-04-26T18:17:01.675Z,12.65
2023-04-26T18:19:31.090Z,12.59
2023-04-26T18:21:59.575Z,12.74
2023-04-26T18:24:29.110Z,12.54
2023-04-26T18:26:58.151Z,12.31
2023-04-26T18:29:26.174Z,12.52
2023-04-26T18:31:55.831Z,12.18
2023-04-26T18:34:24.047Z,12.51
2023-04-26T18:36:52.037Z,12.32
2023-04-26T18:39:20.023Z,12.34
2023-04-26T18:41:48.318Z,12.50
2023-04-26T18:44:19.073Z,12.56
2023-04-26T18:46:47.218Z,12.85
2023-04-26T18:49:18.778Z,12.64
2023-04-26T18:51:46.990Z,12.58
2023-04-26T18:54:15.438Z,12.37
2023-04-26T18:56:44.094Z,12.53
2023-04-26T18:59:12.468Z,12.62
2023-04-26T19:01:42.873Z,12.79
2023-04-26T19:04:11.721Z,12.52
2023-04-26T19:06:46.014Z,12.46
2023-04-26T19:09:19.909Z,12.44
2023-04-26T19:11:48.145Z,12.45
2023-04-26T19:14:16.247Z,12.43
2023-04-26T19:16:44.294Z,12.07
2023-04-26T19:19:13.872Z,12.49
2023-04-26T19:21:43.422Z,12.64
2023-04-26T19:24:11.662Z,12.58
2023-04-26T19:26:39.734Z,12.62
2023-04-26T19:29:08.169Z,12.52
2023-04-26T19:31:36.609Z,12.44
2023-04-26T19:34:05.224Z,12.47
2023-04-26T19:36:34.891Z,12.57
2023-04-26T19:39:04.779Z,12.35
2023-04-26T19:41:32.916Z,12.36
2023-04-26T19:44:01.533Z,12.12
2023-04-26T19:46:29.711Z,12.32
2023-04-26T19:48:57.724Z,12.20
2023-04-26T19:51:25.904Z,12.10
2023-04-26T19:53:54.294Z,12.18
2023-04-26T19:56:29.735Z,12.18
2023-04-26T19:59:17.688Z,12.37
2023-04-26T20:01:45.993Z,12.39
2023-04-26T20:04:14.570Z,12.34
2023-04-26T20:06:42.784Z,12.29
2023-04-26T20:09:11.245Z,12.21
2023-04-26T20:11:40.621Z,12.31
2023-04-26T20:14:09.161Z,12.32
2023-04-26T20:16:37.296Z,12.31
2023-04-26T20:19:06.108Z,12.34
2023-04-26T20:21:36.873Z,12.25
2023-04-26T20:24:05.457Z,12.20
2023-04-26T20:26:33.563Z,12.11
2023-04-26T20:29:03.003Z,11.93
2023-04-26T20:31:31.132Z,12.08
2023-04-26T20:34:00.679Z,12.02
2023-04-26T20:36:29.042Z,11.84
2023-04-26T20:38:57.103Z,11.85
2023-04-26T20:41:25.458Z,12.00
2023-04-26T20:43:53.898Z,11.94
2023-04-26T20:46:23.703Z,11.82
2023-04-26T20:48:52.130Z,11.88
2023-04-26T20:51:20.312Z,11.87
2023-04-26T20:53:48.381Z,11.71
2023-04-26T20:56:16.505Z,11.67
2023-04-26T20:58:44.635Z,11.74
2023-04-26T21:01:12.584Z,11.76
2023-04-26T21:03:42.438Z,11.62
2023-04-26T21:06:10.791Z,11.65
2023-04-26T21:08:39.060Z,11.67
2023-04-26T21:11:07.110Z,11.46
2023-04-26T21:13:35.281Z,11.45
2023-04-26T21:16:03.794Z,11.45
2023-04-26T21:18:31.893Z,11.46
2023-04-26T21:21:01.644Z,11.56
2023-04-26T21:23:30.246Z,11.53
2023-04-26T21:25:58.214Z,11.43
2023-04-26T21:28:26.220Z,11.50
2023-04-26T21:31:04.308Z,11.42
2023-04-26T21:33:33.081Z,11.46
2023-04-26T21:36:05.462Z,11.52
2023-04-26T21:38:36.445Z,11.48
2023-04-26T21:41:04.873Z,11.34
2023-04-26T21:43:32.968Z,11.35
2023-04-26T21:46:03.685Z,11.45
2023-04-26T21:48:31.726Z,11.50
2023-04-26T21:50:59.873Z,11.25
2023-04-26T21:53:29.768Z,11.01
2023-04-26T21:55:57.927Z,11.15
2023-04-26T21:58:26.126Z,11.27
2023-04-26T22:00:54.611Z,11.37
2023-04-26T22:03:22.871Z,11.38
2023-04-26T22:05:51.286Z,11.37
2023-04-26T22:08:19.609Z,11.43
2023-04-26T22:10:49.085Z,11.45
2023-04-26T22:13:17.255Z,11.49
2023-04-26T22:15:45.613Z,11.53
2023-04-26T22:18:13.777Z,11.53
2023-04-26T22:20:42.022Z,11.46
2023-04-26T22:23:10.610Z,11.25
2023-04-26T22:25:39.386Z,11.22
2023-04-26T22:28:08.739Z,11.21
2023-04-26T22:30:36.947Z,11.20
2023-04-26T22:33:07.013Z,11.22
2023-04-26T22:35:36.358Z,11.24
2023-04-26T22:38:04.736Z,11.17
2023-04-26T22:40:33.390Z,11.13
2023-04-26T22:43:03.711Z,11.16
2023-04-26T22:45:33.686Z,11.19
2023-04-26T22:48:03.048Z,11.04
2023-04-26T22:50:31.367Z,10.93
2023-04-26T22:52:59.458Z,10.99
2023-04-26T22:55:27.836Z,10.88
2023-04-26T22:57:55.856Z,11.01
2023-04-26T23:00:25.877Z,11.07
2023-04-26T23:02:55.914Z,11.11
2023-04-26T23:05:24.315Z,11.00
2023-04-26T23:07:52.540Z,10.91
2023-04-26T23:10:21.137Z,10.88
2023-04-26T23:12:50.774Z,10.93
2023-04-26T23:15:18.848Z,10.98
2023-04-26T23:17:47.087Z,10.81
2023-04-26T23:20:16.612Z,10.81
2023-04-26T23:22:44.911Z,10.58
2023-04-26T23:25:12.820Z,10.57
2023-04-26T23:27:41.106Z,10.58
2023-04-26T23:30:09.907Z,10.56
2023-04-26T23:32:37.895Z,10.29
2023-04-26T23:35:06.752Z,10.05
2023-04-26T23:37:36.310Z,10.22
2023-04-26T23:40:06.479Z,10.08
2023-04-26T23:42:34.420Z,9.89
2023-04-26T23:45:02.570Z,10.17
2023-04-26T23:47:31.946Z,10.25
2023-04-26T23:50:00.394Z,10.26
2023-04-26T23:52:28.628Z,10.37
2023-04-26T23:54:57.978Z,9.93
2023-04-26T23:57:26.097Z,10.16
2023-04-26T23:59:54.219Z,10.16
